Time;durP1;ratioP1;P1;durP2;ratioP2;P2;SDS_P1;SDS_P2;PMS_P1;PMS_P2;Temp;Humidity;BMP_temperature;BMP_pressure;BME280_temperature;BME280_humidity;BME280_pressure;Samples;Min_cycle;Max_cycle;Signal;HPM_P1;HPM_P2
2023/09/04 00:00:14;;;;;;;7.50;6.20;;;;;;;14.12;100.00;98772.86;107102;1278;24238;-82
2023/09/04 00:03:04;;;;;;;12.20;6.60;;;;;;;14.09;100.00;98773.61;107044;1278;24371;-82
2023/09/04 00:05:33;;;;;;;8.50;6.80;;;;;;;14.06;100.00;98774.69;107067;1278;22647;-82
2023/09/04 00:08:03;;;;;;;8.10;6.10;;;;;;;14.05;100.00;98774.61;107170;1278;25385;-82
2023/09/04 00:10:31;;;;;;;7.20;5.90;;;;;;;14.03;100.00;98772.70;107035;1278;22531;-82
2023/09/04 00:12:59;;;;;;;10.10;6.50;;;;;;;13.99;100.00;98770.70;107510;1278;22815;-81
2023/09/04 00:15:26;;;;;;;7.30;6.00;;;;;;;13.95;100.00;98771.81;109718;1278;22584;-81
2023/09/04 00:17:55;;;;;;;7.60;5.90;;;;;;;13.92;100.00;98766.83;109466;1278;22644;-81
2023/09/04 00:20:24;;;;;;;10.50;6.60;;;;;;;13.91;100.00;98766.59;109344;1277;22033;-81
2023/09/04 00:22:56;;;;;;;8.20;5.90;;;;;;;13.87;100.00;98774.73;109786;1278;22519;-80
2023/09/04 00:25:25;;;;;;;6.80;6.10;;;;;;;13.81;100.00;98777.10;108176;1267;22902;-80
2023/09/04 00:27:55;;;;;;;6.70;6.00;;;;;;;13.74;100.00;98778.63;107011;1278;201988;-80
2023/09/04 00:30:23;;;;;;;9.40;7.40;;;;;;;13.70;100.00;98779.89;106797;1278;22551;-83
2023/09/04 00:32:52;;;;;;;10.60;8.30;;;;;;;13.67;100.00;98781.18;107127;1277;25607;-81
2023/09/04 00:35:21;;;;;;;10.40;8.00;;;;;;;13.62;100.00;98786.75;106974;1278;22636;-81
2023/09/04 00:37:50;;;;;;;8.00;7.10;;;;;;;13.59;100.00;98787.73;106827;1278;22623;-81
2023/09/04 00:40:17;;;;;;;8.40;7.50;;;;;;;13.57;100.00;98788.89;106994;1277;25682;-82
2023/09/04 00:42:45;;;;;;;7.80;6.90;;;;;;;13.56;100.00;98791.63;107025;1277;22766;-82
2023/09/04 00:45:14;;;;;;;8.90;7.50;;;;;;;13.53;100.00;98791.44;106913;1278;22536;-82
2023/09/04 00:47:44;;;;;;;11.10;7.00;;;;;;;13.52;100.00;98793.73;107101;1277;25338;-82
2023/09/04 00:50:23;;;;;;;9.00;6.70;;;;;;;13.51;100.00;98791.98;107159;1278;26758;-83
2023/09/04 00:53:02;;;;;;;8.10;6.30;;;;;;;13.48;100.00;98793.91;106898;1277;22550;-82
2023/09/04 00:55:30;;;;;;;9.30;6.30;;;;;;;13.48;100.00;98797.00;107040;1278;22531;-82
2023/09/04 00:58:00;;;;;;;10.40;6.80;;;;;;;13.47;100.00;98793.77;107086;1277;22590;-82
2023/09/04 01:00:30;;;;;;;11.70;6.40;;;;;;;13.45;100.00;98795.91;107087;1278;22649;-82
2023/09/04 01:03:00;;;;;;;9.10;6.00;;;;;;;13.46;100.00;98799.52;107082;1277;22568;-82
2023/09/04 01:05:31;;;;;;;9.70;6.00;;;;;;;13.44;100.00;98801.72;106972;1277;23769;-82
2023/09/04 01:08:00;;;;;;;10.30;6.00;;;;;;;13.44;100.00;98801.51;107005;1278;22536;-82
2023/09/04 01:10:45;;;;;;;8.60;6.00;;;;;;;13.45;100.00;98797.98;107040;1277;22549;-82
2023/09/04 01:13:27;;;;;;;7.50;6.10;;;;;;;13.46;100.00;98797.48;106942;1264;25520;-81
2023/09/04 01:15:58;;;;;;;8.00;5.90;;;;;;;13.43;100.00;98794.74;107079;1278;22696;-82
2023/09/04 01:18:28;;;;;;;12.70;6.70;;;;;;;13.42;100.00;98794.45;107028;1277;23334;-82
2023/09/04 01:21:05;;;;;;;9.20;6.50;;;;;;;13.39;100.00;98797.68;106992;1278;24526;-82
2023/09/04 01:23:33;;;;;;;9.40;6.10;;;;;;;13.34;100.00;98795.02;107194;1277;25405;-81
2023/09/04 01:26:07;;;;;;;9.00;6.90;;;;;;;13.30;100.00;98803.63;107098;1277;22817;-82
2023/09/04 01:28:56;;;;;;;8.70;6.60;;;;;;;13.28;100.00;98806.62;106976;1277;25239;-82
2023/09/04 01:31:29;;;;;;;8.10;6.60;;;;;;;13.24;100.00;98808.99;107126;1278;22525;-82
2023/09/04 01:34:08;;;;;;;8.50;6.20;;;;;;;13.20;100.00;98807.90;106979;1278;25475;-82
2023/09/04 01:36:38;;;;;;;8.00;5.90;;;;;;;13.13;100.00;98810.27;107196;1264;22650;-81
2023/09/04 01:39:06;;;;;;;7.20;6.00;;;;;;;13.07;100.00;98806.25;106962;1277;22599;-81
2023/09/04 01:41:41;;;;;;;9.70;6.40;;;;;;;13.03;100.00;98811.48;107134;1278;22600;-82
2023/09/04 01:44:09;;;;;;;;;;;;;;;13.01;100.00;98815.66;106846;1278;25309;-82
2023/09/04 01:46:37;;;;;;;8.30;6.40;;;;;;;13.00;100.00;98810.58;107171;1277;22539;-82
2023/09/04 01:49:07;;;;;;;8.60;6.70;;;;;;;12.97;100.00;98812.18;106889;1277;22637;-82
2023/09/04 01:51:35;;;;;;;8.10;6.80;;;;;;;12.94;100.00;98815.90;107083;1278;25538;-82
2023/09/04 01:54:04;;;;;;;9.50;7.00;;;;;;;12.91;100.00;98818.61;106839;1278;22640;-82
2023/09/04 01:56:32;;;;;;;8.90;6.40;;;;;;;12.89;100.00;98820.73;106972;1277;22579;-82
2023/09/04 01:59:01;;;;;;;7.60;6.50;;;;;;;12.85;100.00;98816.52;106899;1278;24205;-82
2023/09/04 02:01:30;;;;;;;10.40;5.90;;;;;;;12.83;100.00;98815.56;106866;1278;24225;-82
2023/09/04 02:03:58;;;;;;;7.60;5.90;;;;;;;12.80;100.00;98815.73;106951;1278;24367;-82
2023/09/04 02:06:28;;;;;;;10.20;6.10;;;;;;;12.78;100.00;98816.17;106818;1277;22529;-82
2023/09/04 02:08:57;;;;;;;10.10;5.90;;;;;;;12.74;100.00;98819.73;107019;1277;26731;-82
2023/09/04 02:11:25;;;;;;;7.00;5.60;;;;;;;12.70;100.00;98820.05;106824;1278;22596;-82
2023/09/04 02:13:53;;;;;;;10.90;6.10;;;;;;;12.67;100.00;98821.77;106830;1278;22573;-82
2023/09/04 02:16:24;;;;;;;8.50;5.70;;;;;;;12.64;100.00;98818.02;106948;1278;22654;-82
2023/09/04 02:18:55;;;;;;;7.00;5.40;;;;;;;12.60;100.00;98822.62;106913;1277;22712;-82
2023/09/04 02:21:23;;;;;;;7.90;5.60;;;;;;;12.58;100.00;98819.83;107064;1278;22524;-82
2023/09/04 02:23:51;;;;;;;9.10;5.50;;;;;;;12.57;100.00;98822.44;107041;1278;22543;-82
2023/09/04 02:26:19;;;;;;;9.10;6.20;;;;;;;12.58;100.00;98821.30;107035;1277;22769;-82
2023/09/04 02:28:47;;;;;;;8.10;5.80;;;;;;;12.58;100.00;98823.52;106922;1278;22701;-82
2023/09/04 02:31:15;;;;;;;8.40;5.50;;;;;;;12.57;100.00;98823.52;106982;1277;22587;-82
2023/09/04 02:33:44;;;;;;;9.80;6.60;;;;;;;12.60;100.00;98820.02;106964;1278;23149;-82
2023/09/04 02:36:12;;;;;;;9.50;6.00;;;;;;;12.60;100.00;98823.64;106987;1278;22554;-82
2023/09/04 02:38:41;;;;;;;11.00;6.00;;;;;;;12.60;100.00;98820.55;106981;1277;22640;-82
2023/09/04 02:41:09;;;;;;;10.80;5.90;;;;;;;12.62;100.00;98823.36;106834;1278;24069;-82
2023/09/04 02:43:37;;;;;;;7.30;5.70;;;;;;;12.63;100.00;98828.09;107056;1277;22538;-82
2023/09/04 02:46:05;;;;;;;8.90;5.10;;;;;;;12.65;100.00;98826.45;107002;1278;22536;-82
2023/09/04 02:48:33;;;;;;;9.80;5.70;;;;;;;12.66;100.00;98826.93;107226;1277;23299;-82
2023/09/04 02:51:01;;;;;;;8.60;5.80;;;;;;;12.67;100.00;98823.30;107931;1276;22527;-82
2023/09/04 02:53:29;;;;;;;8.40;5.80;;;;;;;12.67;100.00;98821.23;106962;1278;24237;-82
2023/09/04 02:55:57;;;;;;;8.90;5.40;;;;;;;12.67;100.00;98823.83;107036;1277;22548;-82
2023/09/04 02:58:26;;;;;;;6.30;4.70;;;;;;;12.67;100.00;98830.31;106962;1259;22527;-82
2023/09/04 03:00:54;;;;;;;9.80;5.40;;;;;;;12.65;100.00;98837.79;107029;1277;22744;-82
2023/09/04 03:03:22;;;;;;;6.80;5.60;;;;;;;12.63;100.00;98845.89;107089;1277;22540;-82
2023/09/04 03:05:50;;;;;;;9.00;5.10;;;;;;;12.60;100.00;98847.98;107087;1278;22533;-82
2023/09/04 03:08:19;;;;;;;8.10;5.30;;;;;;;12.57;100.00;98847.85;107172;1278;22689;-81
2023/09/04 03:10:46;;;;;;;7.60;5.10;;;;;;;12.53;100.00;98843.99;107083;1277;22524;-81
2023/09/04 03:13:15;;;;;;;7.70;5.10;;;;;;;12.49;100.00;98843.29;107062;1278;25556;-82
2023/09/04 03:15:43;;;;;;;7.80;5.70;;;;;;;12.45;100.00;98839.60;106907;1277;23041;-82
2023/09/04 03:18:11;;;;;;;8.20;4.90;;;;;;;12.44;100.00;98841.89;106966;1278;22597;-82
2023/09/04 03:20:40;;;;;;;6.90;5.30;;;;;;;12.42;100.00;98846.51;107126;1277;22652;-81
2023/09/04 03:23:08;;;;;;;7.80;5.20;;;;;;;12.41;100.00;98846.09;107060;1277;22713;-81
2023/09/04 03:25:36;;;;;;;7.50;5.30;;;;;;;12.41;100.00;98844.09;107115;1277;24275;-81
2023/09/04 03:28:05;;;;;;;7.40;4.70;;;;;;;12.39;100.00;98849.63;106885;1279;22574;-81
2023/09/04 03:30:34;;;;;;;8.00;5.40;;;;;;;12.34;100.00;98852.05;106941;1279;22607;-82
2023/09/04 03:33:03;;;;;;;7.50;5.30;;;;;;;12.34;100.00;98854.48;107277;1278;22549;-83
2023/09/04 03:35:31;;;;;;;8.30;4.70;;;;;;;12.35;100.00;98857.66;106945;1278;22795;-82
2023/09/04 03:37:59;;;;;;;7.40;4.40;;;;;;;12.34;100.00;98860.33;106803;1278;24460;-82
2023/09/04 03:40:29;;;;;;;7.70;4.50;;;;;;;12.35;100.00;98861.77;107004;1278;23880;-81
2023/09/04 03:42:57;;;;;;;6.80;4.60;;;;;;;12.36;100.00;98861.16;106985;1278;22546;-81
2023/09/04 03:45:32;;;;;;;7.60;5.20;;;;;;;12.37;100.00;98859.59;106799;1270;22738;-81
2023/09/04 03:48:01;;;;;;;7.00;4.90;;;;;;;12.36;100.00;98863.55;106918;1278;22604;-81
2023/09/04 03:50:29;;;;;;;7.00;5.40;;;;;;;12.34;100.00;98852.21;106923;1278;22601;-82
2023/09/04 03:52:57;;;;;;;8.10;5.10;;;;;;;12.32;100.00;98854.02;106808;1278;22560;-81
2023/09/04 03:55:25;;;;;;;8.80;4.90;;;;;;;12.30;100.00;98852.48;106767;1278;22583;-82
2023/09/04 03:57:53;;;;;;;6.10;4.50;;;;;;;12.29;100.00;98850.11;106959;1278;25281;-82
2023/09/04 04:00:22;;;;;;;5.60;4.90;;;;;;;12.25;100.00;98849.88;106595;1278;22771;-81
2023/09/04 04:02:53;;;;;;;6.80;5.60;;;;;;;12.16;100.00;98833.86;106854;1278;22531;-83
2023/09/04 04:05:23;;;;;;;9.90;5.90;;;;;;;12.19;100.00;98847.29;108886;1278;22483;-82
2023/09/04 04:07:52;;;;;;;8.50;6.00;;;;;;;12.14;100.00;98851.29;109536;1278;25496;-82
2023/09/04 04:10:20;;;;;;;7.00;5.50;;;;;;;12.11;100.00;98861.09;109472;1278;22574;-82
2023/09/04 04:12:54;;;;;;;7.30;6.10;;;;;;;12.08;100.00;98867.49;109969;1278;22617;-81
2023/09/04 04:15:22;;;;;;;7.70;5.40;;;;;;;12.04;100.00;98874.93;107041;1278;22524;-82
2023/09/04 04:17:51;;;;;;;9.40;5.90;;;;;;;12.02;100.00;98875.98;107237;1278;25522;-82
2023/09/04 04:20:20;;;;;;;8.90;5.60;;;;;;;12.01;100.00;98876.16;107413;1278;24243;-82
2023/09/04 04:22:48;;;;;;;8.00;5.00;;;;;;;11.99;100.00;98879.73;106938;1278;22761;-82
2023/09/04 04:25:16;;;;;;;9.50;7.20;;;;;;;11.97;100.00;98881.37;107088;1278;22528;-81
2023/09/04 04:27:45;;;;;;;8.80;5.60;;;;;;;11.96;100.00;98884.45;106978;1277;22692;-81
2023/09/04 04:30:14;;;;;;;8.20;5.60;;;;;;;11.94;100.00;98883.88;107115;1277;24225;-81
2023/09/04 04:32:42;;;;;;;7.60;5.80;;;;;;;11.93;100.00;98891.67;107083;1272;22636;-82
2023/09/04 04:35:10;;;;;;;9.50;6.10;;;;;;;11.89;100.00;98885.38;107001;1276;22531;-82
2023/09/04 04:37:38;;;;;;;7.60;6.20;;;;;;;11.86;100.00;98881.73;106844;1278;22647;-82
2023/09/04 04:40:08;;;;;;;8.70;5.80;;;;;;;11.84;100.00;98888.91;107126;1277;22723;-83
2023/09/04 04:42:37;;;;;;;8.80;5.80;;;;;;;11.84;100.00;98893.23;107206;1277;22640;-82
2023/09/04 04:45:08;;;;;;;8.90;5.40;;;;;;;11.82;100.00;98895.30;107036;1277;22620;-82
2023/09/04 04:47:36;;;;;;;10.10;5.50;;;;;;;11.84;100.00;98900.84;107124;1277;25416;-80
2023/09/04 04:50:05;;;;;;;9.50;5.50;;;;;;;11.88;100.00;98906.52;106923;1277;23204;-81
2023/09/04 04:52:34;;;;;;;7.80;5.50;;;;;;;11.92;100.00;98908.58;106915;1277;22524;-82
2023/09/04 04:55:02;;;;;;;9.40;5.70;;;;;;;11.97;100.00;98909.83;107050;1255;22626;-81
2023/09/04 04:57:32;;;;;;;9.60;6.20;;;;;;;12.01;100.00;98912.79;106939;1278;22725;-81
2023/09/04 05:00:06;;;;;;;11.10;6.80;;;;;;;12.05;100.00;98920.04;107029;1267;22547;-81
2023/09/04 05:02:34;;;;;;;10.20;6.80;;;;;;;12.11;100.00;98924.30;107196;1277;22647;-83
2023/09/04 05:05:03;;;;;;;9.40;6.50;;;;;;;12.17;100.00;98930.15;106881;1277;24410;-82
2023/09/04 05:07:33;;;;;;;13.10;6.90;;;;;;;12.23;100.00;98935.08;107108;1277;22584;-81
2023/09/04 05:10:01;;;;;;;10.50;6.70;;;;;;;12.31;100.00;98940.39;106979;1277;24228;-82
2023/09/04 05:12:29;;;;;;;11.30;6.40;;;;;;;12.40;100.00;98949.73;107128;1277;22539;-83
2023/09/04 05:14:57;;;;;;;12.50;6.00;;;;;;;12.46;100.00;98951.71;106902;1278;24203;-82
2023/09/04 05:17:26;;;;;;;10.10;6.70;;;;;;;12.49;100.00;98949.70;106805;1278;24639;-81
2023/09/04 05:19:54;;;;;;;9.90;6.50;;;;;;;12.48;100.00;98951.16;107046;1277;24496;-82
2023/09/04 05:22:22;;;;;;;10.30;6.60;;;;;;;12.52;100.00;98954.15;107076;1256;24234;-82
2023/09/04 05:24:50;;;;;;;10.40;6.10;;;;;;;12.55;100.00;98953.20;106923;1278;22639;-82
2023/09/04 05:27:18;;;;;;;11.20;6.40;;;;;;;12.59;100.00;98952.14;107143;1263;24470;-82
2023/09/04 05:29:46;;;;;;;8.40;5.80;;;;;;;12.63;100.00;98951.49;107104;1277;25453;-81
2023/09/04 05:32:15;;;;;;;12.90;6.30;;;;;;;12.67;100.00;98946.00;107194;1277;24178;-82
2023/09/04 05:34:43;;;;;;;9.10;6.40;;;;;;;12.71;100.00;98945.03;107098;1254;22531;-81
2023/09/04 05:37:12;;;;;;;10.80;5.80;;;;;;;12.75;100.00;98955.23;107172;1277;22624;-82
2023/09/04 05:39:40;;;;;;;7.80;5.80;;;;;;;12.80;100.00;98964.77;107176;1277;25510;-83
2023/09/04 05:42:08;;;;;;;12.40;6.10;;;;;;;12.86;100.00;98967.23;107099;1254;22665;-82
2023/09/04 05:44:36;;;;;;;11.20;6.20;;;;;;;12.88;100.00;98968.05;107026;1278;22688;-82
2023/09/04 05:47:04;;;;;;;12.40;6.30;;;;;;;12.96;100.00;98971.96;107163;1278;22580;-83
2023/09/04 05:49:32;;;;;;;7.60;5.20;;;;;;;13.07;100.00;98976.30;107116;1277;24202;-82
2023/09/04 05:52:00;;;;;;;11.50;6.40;;;;;;;13.15;100.00;98978.08;107116;1277;25412;-81
2023/09/04 05:54:29;;;;;;;10.40;5.70;;;;;;;13.21;100.00;98979.96;107069;1277;24445;-81
2023/09/04 05:56:57;;;;;;;11.50;5.60;;;;;;;13.25;100.00;98972.88;107050;1277;22535;-81
2023/09/04 05:59:26;;;;;;;10.10;5.30;;;;;;;13.33;100.00;98973.73;106894;1277;25550;-81
2023/09/04 06:01:54;;;;;;;12.40;5.50;;;;;;;13.43;100.00;98970.30;107068;1277;22614;-81
2023/09/04 06:04:22;;;;;;;12.00;6.20;;;;;;;13.56;100.00;98960.63;107013;1277;22781;-83
2023/09/04 06:06:53;;;;;;;10.20;5.90;;;;;;;13.70;100.00;98957.45;107040;1277;22648;-80
2023/09/04 06:09:21;;;;;;;9.70;5.10;;;;;;;13.83;100.00;98952.77;107032;1277;25405;-82
2023/09/04 06:11:51;;;;;;;9.70;5.40;;;;;;;13.89;100.00;98955.73;107056;1267;22549;-81
2023/09/04 06:14:19;;;;;;;11.60;6.10;;;;;;;13.92;100.00;98955.61;107249;1277;25380;-82
2023/09/04 06:16:47;;;;;;;10.10;5.30;;;;;;;13.96;100.00;98951.93;107124;1278;22517;-82
2023/09/04 06:19:15;;;;;;;11.70;6.00;;;;;;;14.10;100.00;98946.02;107088;1278;22523;-82
2023/09/04 06:21:43;;;;;;;11.70;5.80;;;;;;;14.22;100.00;98944.47;107155;1277;22618;-82
2023/09/04 06:24:11;;;;;;;12.00;6.20;;;;;;;14.27;100.00;98955.43;107123;1277;22535;-81
2023/09/04 06:26:39;;;;;;;13.80;5.80;;;;;;;14.30;100.00;98954.45;107122;1277;22657;-81
2023/09/04 06:29:07;;;;;;;10.80;5.80;;;;;;;14.41;100.00;98952.05;107063;1278;22531;-81
2023/09/04 06:31:35;;;;;;;11.50;6.10;;;;;;;14.51;100.00;98955.53;107487;1278;22598;-82
2023/09/04 06:34:03;;;;;;;13.70;6.80;;;;;;;14.59;100.00;98960.02;107244;1277;22570;-82
2023/09/04 06:36:31;;;;;;;11.40;6.80;;;;;;;14.63;100.00;98962.54;107158;1278;22587;-82
2023/09/04 06:39:00;;;;;;;10.10;6.90;;;;;;;14.75;100.00;98961.72;107077;1278;24410;-82
2023/09/04 06:41:28;;;;;;;9.50;6.20;;;;;;;14.92;100.00;98958.42;107149;1277;22602;-82
2023/09/04 06:43:56;;;;;;;8.80;5.70;;;;;;;15.07;100.00;98962.42;107146;1277;22519;-82
2023/09/04 06:46:24;;;;;;;10.50;6.00;;;;;;;15.20;100.00;98961.86;107182;1277;22641;-82
2023/09/04 06:48:53;;;;;;;19.20;11.10;;;;;;;15.34;100.00;98961.27;107066;1277;22554;-82
2023/09/04 06:51:21;;;;;;;21.30;11.00;;;;;;;15.43;100.00;98955.03;107083;1277;22632;-82
2023/09/04 06:53:49;;;;;;;28.00;11.50;;;;;;;15.46;100.00;98951.16;107115;1277;22523;-82
2023/09/04 06:56:17;;;;;;;8.40;5.60;;;;;;;15.44;100.00;98963.05;106958;1278;25367;-82
2023/09/04 06:58:45;;;;;;;10.30;5.20;;;;;;;15.49;100.00;98967.53;107086;1255;22527;-81
2023/09/04 07:01:13;;;;;;;9.50;6.10;;;;;;;15.56;100.00;98969.54;107080;1272;22590;-81
2023/09/04 07:03:41;;;;;;;9.30;6.00;;;;;;;15.56;100.00;98971.77;106885;1277;22665;-81
2023/09/04 07:06:09;;;;;;;10.30;6.80;;;;;;;15.55;100.00;98970.64;107124;1277;23281;-81
2023/09/04 07:08:37;;;;;;;11.20;6.10;;;;;;;15.60;100.00;98968.14;107062;1277;22527;-83
2023/09/04 07:11:05;;;;;;;13.00;5.70;;;;;;;15.65;100.00;98969.13;106928;1277;24218;-82
2023/09/04 07:13:33;;;;;;;11.20;6.10;;;;;;;15.71;100.00;98972.55;106909;1278;22540;-82
2023/09/04 07:16:02;;;;;;;11.10;6.50;;;;;;;15.66;99.60;98979.49;106937;1277;25291;-82
2023/09/04 07:18:30;;;;;;;10.30;5.90;;;;;;;15.60;99.68;98979.92;106937;1278;22537;-82
2023/09/04 07:21:09;;;;;;;8.20;5.70;;;;;;;15.55;99.93;98981.94;106972;1278;22549;-81
2023/09/04 07:23:37;;;;;;;8.80;5.10;;;;;;;15.49;99.49;98989.73;106955;1277;22539;-82
2023/09/04 07:26:05;;;;;;;9.50;6.00;;;;;;;15.41;97.82;98998.05;107063;1278;25415;-82
2023/09/04 07:28:33;;;;;;;11.20;5.60;;;;;;;15.32;97.91;99006.37;107152;1278;22775;-82
2023/09/04 07:31:18;;;;;;;9.20;4.90;;;;;;;15.29;98.44;99011.52;107183;1278;25349;-82
2023/09/04 07:33:48;;;;;;;8.20;4.70;;;;;;;15.34;98.82;99010.91;107176;1277;22633;-81
2023/09/04 07:36:16;;;;;;;10.30;5.40;;;;;;;15.36;98.69;99017.92;107212;1277;24956;-83
2023/09/04 07:38:46;;;;;;;10.50;5.00;;;;;;;15.39;98.49;99016.77;107038;1278;25279;-81
2023/09/04 07:41:14;;;;;;;8.00;5.10;;;;;;;15.48;99.08;99018.22;107117;1277;22692;-81
2023/09/04 07:43:42;;;;;;;7.80;5.70;;;;;;;15.56;98.21;99014.70;107143;1277;24356;-82
2023/09/04 07:46:10;;;;;;;8.70;5.60;;;;;;;15.57;97.29;99015.42;107143;1277;22532;-81
2023/09/04 07:48:38;;;;;;;9.20;6.10;;;;;;;15.62;97.61;99017.00;107116;1277;22525;-83
2023/09/04 07:51:09;;;;;;;7.80;5.50;;;;;;;15.73;97.94;99023.05;107019;1277;22761;-82
2023/09/04 07:53:57;;;;;;;8.90;5.70;;;;;;;15.90;98.39;99018.05;106989;1278;23420;-81
2023/09/04 07:56:25;;;;;;;11.90;5.60;;;;;;;16.07;98.06;99019.04;107252;1267;22538;-82
2023/09/04 07:58:53;;;;;;;9.30;5.40;;;;;;;16.19;98.19;99022.77;109401;1278;22438;-82
2023/09/04 08:01:21;;;;;;;10.30;5.90;;;;;;;16.23;94.76;99031.39;109188;1277;22525;-82
2023/09/04 08:03:49;;;;;;;6.90;4.30;;;;;;;16.18;94.33;99030.98;108607;1278;25335;-82
2023/09/04 08:06:17;;;;;;;8.60;5.50;;;;;;;16.13;94.29;99035.25;108444;1278;22883;-81
2023/09/04 08:08:46;;;;;;;7.90;4.40;;;;;;;16.13;93.48;99041.99;107008;1277;24371;-81
2023/09/04 08:11:15;;;;;;;8.20;5.10;;;;;;;16.10;94.52;99048.43;107110;1277;22644;-81
2023/09/04 08:13:42;;;;;;;9.10;5.80;;;;;;;16.16;95.31;99042.09;107103;1277;26651;-82
2023/09/04 08:16:11;;;;;;;8.40;4.20;;;;;;;16.18;93.10;99045.96;107081;1277;24203;-81
2023/09/04 08:18:39;;;;;;;6.60;4.20;;;;;;;16.11;93.06;99046.55;107162;1277;24390;-82
2023/09/04 08:21:07;;;;;;;5.90;3.90;;;;;;;16.01;92.47;99045.20;107036;1277;23005;-82
2023/09/04 08:23:35;;;;;;;9.80;4.80;;;;;;;15.97;93.08;99044.98;107028;1277;22664;-83
2023/09/04 08:26:03;;;;;;;7.70;4.50;;;;;;;15.98;93.18;99042.28;106758;1275;22531;-83
2023/09/04 08:28:32;;;;;;;7.50;4.80;;;;;;;15.97;92.81;99044.16;107077;1277;22622;-82
2023/09/04 08:31:00;;;;;;;7.60;4.70;;;;;;;15.97;92.49;99046.65;106930;1262;22569;-81
2023/09/04 08:33:28;;;;;;;9.80;5.20;;;;;;;16.01;93.16;99043.64;107087;1278;22654;-81
2023/09/04 08:35:59;;;;;;;7.40;4.60;;;;;;;16.12;93.63;99039.69;107011;1278;26615;-82
2023/09/04 08:38:27;;;;;;;8.70;5.10;;;;;;;16.24;93.40;99040.13;107029;1278;24140;-82
2023/09/04 08:40:59;;;;;;;9.30;5.70;;;;;;;16.29;92.33;99040.20;106928;1278;22527;-82
2023/09/04 08:43:30;;;;;;;8.40;5.30;;;;;;;16.24;90.84;99046.90;107075;1277;22554;-81
2023/09/04 08:46:00;;;;;;;7.20;5.50;;;;;;;16.16;90.73;99051.39;107101;1266;23039;-82
2023/09/04 08:48:33;;;;;;;9.10;4.70;;;;;;;16.12;91.02;99049.41;107014;1278;22546;-82
2023/09/04 08:51:02;;;;;;;8.50;5.20;;;;;;;16.08;91.37;99050.43;107211;1275;22525;-82
2023/09/04 08:53:31;;;;;;;11.40;5.50;;;;;;;16.09;91.82;99049.60;107139;1277;22598;-82
2023/09/04 08:56:02;;;;;;;11.90;5.10;;;;;;;16.11;92.33;99049.88;107155;1277;22538;-82
2023/09/04 08:58:30;;;;;;;13.80;5.10;;;;;;;16.21;92.33;99047.91;107178;1277;25252;-82
2023/09/04 09:00:58;;;;;;;9.80;5.80;;;;;;;16.26;92.39;99053.52;107162;1277;23457;-82
2023/09/04 09:03:27;;;;;;;12.20;5.50;;;;;;;16.30;91.96;99053.84;107111;1277;22537;-82
2023/09/04 09:05:57;;;;;;;9.20;5.30;;;;;;;16.36;91.56;99057.45;107121;1278;22516;-82
2023/09/04 09:08:29;;;;;;;10.30;5.70;;;;;;;16.46;91.84;99053.66;107205;1277;26601;-82
2023/09/04 09:10:57;;;;;;;9.50;6.20;;;;;;;16.66;92.43;99050.89;106947;1277;22527;-82
2023/09/04 09:13:25;;;;;;;8.20;5.10;;;;;;;16.87;91.34;99044.89;107163;1277;25365;-82
2023/09/04 09:15:54;;;;;;;7.20;6.00;;;;;;;17.04;90.04;99044.95;106961;1277;25243;-82
2023/09/04 09:18:42;;;;;;;9.00;6.20;;;;;;;17.11;88.41;99043.58;107150;1277;23906;-82
2023/09/04 09:21:27;;;;;;;11.20;5.90;;;;;;;17.25;88.88;99037.10;107138;1278;22641;-82
2023/09/04 09:24:25;;;;;;;10.00;5.40;;;;;;;17.40;87.88;99038.79;107230;1278;22562;-81
2023/09/04 09:26:53;;;;;;;9.00;5.30;;;;;;;17.53;87.04;99035.64;106563;1285;25375;-81
2023/09/04 09:29:21;;;;;;;9.40;5.40;;;;;;;17.63;86.96;99036.33;106519;1285;25055;-84
2023/09/04 09:31:52;;;;;;;9.90;6.20;;;;;;;17.74;86.38;99034.92;106954;1283;22655;-82
2023/09/04 09:34:21;;;;;;;10.30;6.70;;;;;;;17.77;85.51;99034.86;106511;1285;22539;-81
2023/09/04 09:36:49;;;;;;;11.20;5.80;;;;;;;17.75;85.92;99028.84;106492;1285;24334;-82
2023/09/04 09:39:17;;;;;;;8.20;6.20;;;;;;;17.92;85.11;99029.12;106507;1285;24210;-81
2023/09/04 09:41:46;;;;;;;7.80;6.00;;;;;;;18.05;84.77;99028.23;106478;1283;22674;-81
2023/09/04 09:44:14;;;;;;;7.90;6.30;;;;;;;18.24;86.47;99025.27;106550;1285;22648;-81
2023/09/04 09:46:43;;;;;;;8.40;6.10;;;;;;;18.51;87.09;99033.04;106533;1285;22513;-82
2023/09/04 09:49:11;;;;;;;9.70;5.90;;;;;;;18.61;85.49;99032.25;106526;1285;25423;-82
2023/09/04 09:51:40;;;;;;;7.70;5.90;;;;;;;18.60;83.40;99032.07;106535;1285;23926;-82
2023/09/04 09:54:12;;;;;;;9.40;6.50;;;;;;;18.55;83.34;99031.69;106487;1285;23451;-82
2023/09/04 09:56:42;;;;;;;10.50;8.20;;;;;;;18.55;84.22;99028.85;106538;1284;22538;-81
2023/09/04 09:59:11;;;;;;;10.70;7.60;;;;;;;18.62;84.17;99025.89;106540;1284;24283;-80
2023/09/04 10:01:41;;;;;;;11.50;7.00;;;;;;;18.77;84.27;99021.49;106267;1284;22650;-82
2023/09/04 10:04:09;;;;;;;9.50;6.70;;;;;;;18.83;81.82;99021.29;106825;1278;22657;-82
2023/09/04 10:06:39;;;;;;;8.90;7.50;;;;;;;18.93;83.09;99019.58;107112;1278;22516;-82
2023/09/04 10:09:11;;;;;;;9.30;6.90;;;;;;;18.92;81.73;99021.70;107101;1277;22673;-83
2023/09/04 10:11:43;;;;;;;10.70;7.90;;;;;;;18.89;81.94;99025.50;107219;1277;22532;-81
2023/09/04 10:14:16;;;;;;;10.20;8.40;;;;;;;18.86;81.29;99031.94;107144;1278;22760;-81
2023/09/04 10:16:53;;;;;;;8.40;7.60;;;;;;;18.89;81.57;99028.08;107135;1272;22543;-81
2023/09/04 10:19:28;;;;;;;9.00;7.40;;;;;;;18.90;80.73;99029.07;106621;1278;22521;-82
2023/09/04 10:22:03;;;;;;;12.30;8.80;;;;;;;18.90;80.30;99029.68;107056;1277;24384;-80
2023/09/04 10:24:51;;;;;;;9.70;8.70;;;;;;;18.91;81.28;99025.05;107061;1278;22530;-81
2023/09/04 10:27:22;;;;;;;10.50;9.50;;;;;;;19.07;81.55;99021.71;107028;1277;22643;-80
2023/09/04 10:29:56;;;;;;;10.40;8.60;;;;;;;19.34;81.98;99011.10;106721;1277;22572;-83
2023/09/04 10:32:25;;;;;;;9.50;7.60;;;;;;;19.63;78.51;99008.27;106837;1277;22683;-81
2023/09/04 10:34:54;;;;;;;8.60;6.90;;;;;;;19.74;78.44;99007.38;106751;1277;24270;-80
2023/09/04 10:37:26;;;;;;;9.50;7.20;;;;;;;19.74;75.68;99005.77;107101;1278;24305;-82
2023/09/04 10:39:54;;;;;;;9.20;7.60;;;;;;;19.60;75.46;99006.89;106959;1278;22682;-82
2023/09/04 10:42:28;;;;;;;8.50;7.30;;;;;;;19.55;76.89;99006.52;106953;1277;24747;-82
2023/09/04 10:44:57;;;;;;;10.50;7.20;;;;;;;19.62;73.67;99005.72;107188;1278;22654;-82
2023/09/04 10:47:26;;;;;;;8.60;7.80;;;;;;;19.68;74.32;99009.02;107925;1277;24288;-81
2023/09/04 10:49:54;;;;;;;8.70;7.80;;;;;;;19.77;71.54;99004.03;107711;1278;23674;-81
2023/09/04 10:52:41;;;;;;;9.50;7.60;;;;;;;19.76;69.68;98998.40;107498;1278;22765;-81
2023/09/04 10:55:13;;;;;;;10.00;7.00;;;;;;;19.86;71.76;98993.13;107179;1277;22765;-81
2023/09/04 10:57:58;;;;;;;7.60;6.60;;;;;;;20.05;71.45;98993.75;106909;1278;22587;-81
2023/09/04 11:00:38;;;;;;;9.20;6.80;;;;;;;20.09;70.42;98995.25;107103;1278;22548;-81
2023/09/04 11:03:14;;;;;;;10.20;6.50;;;;;;;20.16;68.94;99000.03;106952;1278;25757;-82
2023/09/04 11:06:01;;;;;;;8.80;7.00;;;;;;;20.17;67.82;98993.05;107123;1277;23297;-82
2023/09/04 11:08:30;;;;;;;8.00;6.80;;;;;;;20.18;68.94;98992.74;107066;1277;22738;-82
2023/09/04 11:11:04;;;;;;;8.10;6.40;;;;;;;20.31;68.91;98991.91;106849;1277;23140;-82
2023/09/04 11:13:33;;;;;;;7.80;6.30;;;;;;;20.45;68.94;98993.41;106856;1277;22652;-82
2023/09/04 11:16:06;;;;;;;10.80;7.50;;;;;;;20.66;68.32;98989.46;106882;1278;22705;-82
2023/09/04 11:18:36;;;;;;;8.70;7.20;;;;;;;20.78;65.72;98995.20;107048;1277;22753;-82
2023/09/04 11:21:05;;;;;;;9.30;8.30;;;;;;;20.49;63.53;98995.68;107154;1278;25363;-82
2023/09/04 11:23:35;;;;;;;10.20;9.10;;;;;;;20.12;64.66;98993.08;106866;1278;22665;-82
2023/09/04 11:26:03;;;;;;;10.50;8.60;;;;;;;19.82;65.08;98986.34;106879;1278;22662;-82
2023/09/04 11:28:31;;;;;;;9.20;7.90;;;;;;;19.61;65.94;98986.78;107112;1278;24649;-82